createdAt,value
2017-10-10T00:01:24.776Z,100876.28
2017-10-10T00:03:52.291Z,100879.52
2017-10-10T00:06:19.781Z,100878.49
2017-10-10T00:08:47.270Z,100881.81
2017-10-10T00:11:14.809Z,100872.55
2017-10-10T00:13:42.301Z,100871.02
2017-10-10T00:16:09.796Z,100869.26
2017-10-10T00:18:37.303Z,100866.31
2017-10-10T00:23:38.597Z,100861.09
2017-10-10T00:26:06.081Z,100864.30
2017-10-10T00:28:33.593Z,100863.55
2017-10-10T00:31:01.147Z,100855.63
2017-10-10T00:33:28.667Z,100854.37
2017-10-10T00:35:56.169Z,100856.66
2017-10-10T00:38:23.655Z,100849.48
2017-10-10T00:40:51.164Z,100849.80
2017-10-10T00:43:18.747Z,100851.58
2017-10-10T00:45:46.289Z,100847.96
2017-10-10T00:48:13.775Z,100847.43
2017-10-10T00:50:41.324Z,100849.19
2017-10-10T00:53:08.993Z,100843.78
2017-10-10T00:55:36.475Z,100838.24
2017-10-10T00:58:03.967Z,100845.29
2017-10-10T01:00:31.495Z,100831.95
2017-10-10T01:02:59.020Z,100834.73
2017-10-10T01:05:26.506Z,100831.78
2017-10-10T01:07:54.240Z,100835.84
2017-10-10T01:10:21.729Z,100825.45
2017-10-10T01:12:49.212Z,100830.34
2017-10-10T01:15:16.755Z,100821.80
2017-10-10T01:17:44.243Z,100825.95
2017-10-10T01:20:11.731Z,100825.75
2017-10-10T01:22:39.252Z,100819.19
2017-10-10T01:25:06.737Z,100821.88
2017-10-10T01:27:34.226Z,100825.61
2017-10-10T01:30:01.756Z,100825.37
2017-10-10T01:32:29.256Z,100824.84
2017-10-10T01:34:56.753Z,100824.95
2017-10-10T01:39:58.180Z,100817.23
2017-10-10T01:42:25.695Z,100820.95
2017-10-10T01:44:53.187Z,100821.25
2017-10-10T01:47:20.683Z,100815.30
2017-10-10T01:49:48.219Z,100816.36
2017-10-10T01:52:15.716Z,100818.75
2017-10-10T01:54:43.212Z,100816.16
2017-10-10T01:57:10.770Z,100816.70
2017-10-10T01:59:38.267Z,100819.19
2017-10-10T02:02:05.756Z,100813.13
2017-10-10T02:04:33.295Z,100821.25
2017-10-10T02:07:00.796Z,100812.17
2017-10-10T02:09:28.287Z,100809.87
2017-10-10T02:11:56.000Z,100806.34
2017-10-10T02:14:23.533Z,100799.16
2017-10-10T02:16:51.141Z,100798.02
2017-10-10T02:19:18.808Z,100800.56
2017-10-10T02:21:46.381Z,100802.01
2017-10-10T02:24:13.911Z,100797.53
2017-10-10T02:26:41.475Z,100797.00
2017-10-10T02:29:09.004Z,100792.85
2017-10-10T02:37:18.194Z,100800.91
2017-10-10T02:39:45.686Z,100799.03
2017-10-10T02:42:13.190Z,100796.03
2017-10-10T02:44:40.729Z,100795.63
2017-10-10T02:47:08.226Z,100806.59
2017-10-10T02:49:35.767Z,100801.22
2017-10-10T02:52:03.263Z,100800.73
2017-10-10T02:54:30.796Z,100806.56
2017-10-10T02:56:58.331Z,100800.78
2017-10-10T02:59:25.821Z,100801.12
2017-10-10T03:01:53.324Z,100806.33
2017-10-10T03:04:20.860Z,100810.11
2017-10-10T03:06:48.355Z,100809.65
2017-10-10T03:09:15.849Z,100805.25
2017-10-10T03:11:43.383Z,100807.22
2017-10-10T03:14:10.862Z,100809.06
2017-10-10T03:16:38.360Z,100809.89
2017-10-10T03:19:05.900Z,100804.27
2017-10-10T03:21:33.430Z,100798.96
2017-10-10T03:24:00.924Z,100801.96
2017-10-10T03:26:28.461Z,100801.09
2017-10-10T03:28:55.953Z,100798.51
2017-10-10T03:31:23.451Z,100794.13
2017-10-10T03:33:50.995Z,100791.20
2017-10-10T03:36:18.483Z,100800.88
2017-10-10T03:38:45.968Z,100792.34
2017-10-10T03:41:13.510Z,100789.30
2017-10-10T03:43:41.058Z,100797.92
2017-10-10T03:46:08.625Z,100792.79
2017-10-10T03:48:36.122Z,100792.45
2017-10-10T03:51:03.739Z,100792.45
2017-10-10T03:53:31.236Z,100797.25
2017-10-10T03:55:58.740Z,100798.48
2017-10-10T03:58:26.285Z,100793.80
2017-10-10T04:00:53.775Z,100794.49
2017-10-10T04:03:21.290Z,100796.26
2017-10-10T04:05:49.097Z,100798.44
2017-10-10T04:08:16.593Z,100794.08
2017-10-10T04:10:44.100Z,100798.02
2017-10-10T04:13:11.794Z,100796.75
2017-10-10T04:15:39.293Z,100804.45
2017-10-10T04:18:06.790Z,100808.27
2017-10-10T04:20:34.347Z,100805.02
2017-10-10T04:23:01.849Z,100804.86
2017-10-10T04:25:29.336Z,100805.48
2017-10-10T04:27:56.856Z,100803.72
2017-10-10T04:30:24.353Z,100805.89
2017-10-10T04:32:51.950Z,100802.89
2017-10-10T04:35:19.451Z,100805.48
2017-10-10T04:37:46.949Z,100797.35
2017-10-10T04:40:14.473Z,100802.89
2017-10-10T04:42:42.075Z,100799.91
2017-10-10T04:45:09.609Z,100807.22
2017-10-10T04:47:37.192Z,100797.75
2017-10-10T04:50:04.683Z,100802.59
2017-10-10T04:52:32.200Z,100803.42
2017-10-10T04:54:59.718Z,100805.31
2017-10-10T04:57:27.223Z,100806.59
2017-10-10T04:59:54.711Z,100799.12
2017-10-10T05:02:22.239Z,100802.33
2017-10-10T05:04:49.750Z,100801.70
2017-10-10T05:07:17.236Z,100804.83
2017-10-10T05:09:44.789Z,100811.72
2017-10-10T05:12:12.379Z,100807.74
2017-10-10T05:14:39.873Z,100808.69
2017-10-10T05:17:07.496Z,100805.23
2017-10-10T05:19:34.989Z,100809.09
2017-10-10T05:22:02.537Z,100811.91
2017-10-10T05:24:30.030Z,100816.27
2017-10-10T05:26:57.630Z,100817.82
2017-10-10T05:29:25.152Z,100812.48
2017-10-10T05:31:52.771Z,100820.00
2017-10-10T05:34:20.260Z,100813.02
2017-10-10T05:36:47.747Z,100814.26
2017-10-10T05:39:15.265Z,100816.80
2017-10-10T05:41:42.779Z,100816.05
2017-10-10T05:44:10.300Z,100817.50
2017-10-10T05:46:37.820Z,100815.61
2017-10-10T05:49:05.368Z,100817.70
2017-10-10T05:51:32.899Z,100815.63
2017-10-10T05:54:00.447Z,100819.97
2017-10-10T05:56:27.951Z,100820.50
2017-10-10T05:58:55.500Z,100819.97
2017-10-10T06:01:23.048Z,100821.86
2017-10-10T06:03:50.544Z,100823.09
2017-10-10T06:06:18.100Z,100827.14
2017-10-10T06:08:45.591Z,100829.31
2017-10-10T06:11:13.091Z,100830.66
2017-10-10T06:13:40.667Z,100828.49
2017-10-10T06:16:08.161Z,100832.31
2017-10-10T06:18:35.759Z,100826.97
2017-10-10T06:21:03.324Z,100829.41
2017-10-10T06:23:30.858Z,100835.32
2017-10-10T06:25:58.349Z,100828.05
2017-10-10T06:28:25.839Z,100827.92
2017-10-10T06:30:53.400Z,100829.06
2017-10-10T06:33:20.979Z,100827.09
2017-10-10T06:35:48.483Z,100837.11
2017-10-10T06:38:16.008Z,100829.80
2017-10-10T06:40:43.536Z,100832.41
2017-10-10T06:43:11.032Z,100833.94
2017-10-10T06:45:38.532Z,100832.05
2017-10-10T06:48:06.097Z,100833.38
2017-10-10T06:50:33.633Z,100834.20
2017-10-10T06:53:01.206Z,100840.86
2017-10-10T06:55:28.950Z,100838.48
2017-10-10T06:57:56.528Z,100837.91
2017-10-10T07:00:24.076Z,100834.88
2017-10-10T07:02:51.636Z,100842.08
2017-10-10T07:05:19.145Z,100844.17
2017-10-10T07:07:46.743Z,100840.72
2017-10-10T07:10:14.308Z,100842.20
2017-10-10T07:12:41.803Z,100842.81
2017-10-10T07:15:09.342Z,100841.44
2017-10-10T07:17:36.832Z,100846.06
2017-10-10T07:20:04.341Z,100846.35
2017-10-10T07:22:31.900Z,100844.25
2017-10-10T07:24:59.472Z,100842.02
2017-10-10T07:27:26.973Z,100843.05
2017-10-10T07:29:54.487Z,100845.33
2017-10-10T07:32:22.128Z,100844.06
2017-10-10T07:34:49.620Z,100852.75
2017-10-10T07:37:17.117Z,100848.88
2017-10-10T07:39:44.647Z,100853.00
2017-10-10T07:42:12.210Z,100851.80
2017-10-10T07:44:39.714Z,100847.66
2017-10-10T07:47:07.259Z,100854.77
2017-10-10T07:49:34.759Z,100849.29
2017-10-10T07:52:02.247Z,100853.53
2017-10-10T07:54:29.775Z,100851.77
2017-10-10T07:56:57.320Z,100854.56
2017-10-10T07:59:24.983Z,100851.45
2017-10-10T08:01:52.475Z,100849.14
2017-10-10T08:04:20.003Z,100854.03
2017-10-10T08:06:47.542Z,100849.61
2017-10-10T08:09:15.036Z,100853.34
2017-10-10T08:11:42.542Z,100847.91
2017-10-10T08:14:10.059Z,100846.16
2017-10-10T08:16:37.617Z,100847.45
2017-10-10T08:19:05.137Z,100854.45
2017-10-10T08:21:33.081Z,100853.83
2017-10-10T08:24:00.651Z,100858.84
2017-10-10T08:26:28.202Z,100852.45
2017-10-10T08:28:55.714Z,100854.11
2017-10-10T08:31:23.210Z,100852.12
2017-10-10T08:33:50.757Z,100851.44
2017-10-10T08:36:18.251Z,100849.73
2017-10-10T08:38:45.830Z,100853.90
2017-10-10T08:41:13.361Z,100856.39
2017-10-10T08:43:40.852Z,100854.30
2017-10-10T08:46:08.348Z,100851.97
2017-10-10T08:48:36.075Z,100847.66
2017-10-10T08:51:03.563Z,100858.18
2017-10-10T08:53:31.055Z,100855.41
2017-10-10T08:55:58.836Z,100860.17
2017-10-10T08:58:26.434Z,100853.48
2017-10-10T09:00:53.963Z,100845.12
2017-10-10T09:03:21.531Z,100848.53
2017-10-10T09:05:49.081Z,100852.36
2017-10-10T09:08:16.619Z,100852.10
2017-10-10T09:10:44.332Z,100846.70
2017-10-10T09:13:11.834Z,100857.44
2017-10-10T09:15:39.352Z,100857.09
2017-10-10T09:18:06.884Z,100848.65
2017-10-10T09:20:34.379Z,100849.13
2017-10-10T09:23:01.874Z,100856.69
2017-10-10T09:25:29.596Z,100853.81
2017-10-10T09:27:57.108Z,100853.58
2017-10-10T09:30:24.600Z,100842.69
2017-10-10T09:32:52.257Z,100841.97
2017-10-10T09:35:19.803Z,100837.66
2017-10-10T09:37:47.298Z,100840.21
2017-10-10T09:40:14.847Z,100836.34
2017-10-10T09:42:42.377Z,100835.21
2017-10-10T09:45:09.872Z,100839.16
2017-10-10T09:47:37.421Z,100838.83
2017-10-10T09:50:04.952Z,100845.70
2017-10-10T09:52:32.448Z,100839.63
2017-10-10T09:54:59.989Z,100839.77
2017-10-10T09:57:27.488Z,100832.88
2017-10-10T09:59:54.984Z,100834.56
2017-10-10T10:02:22.543Z,100832.36
2017-10-10T10:04:50.035Z,100838.16
2017-10-10T10:07:17.532Z,100834.91
2017-10-10T10:09:45.060Z,100831.52
2017-10-10T10:12:12.551Z,100832.59
2017-10-10T10:14:40.094Z,100828.46
2017-10-10T10:17:07.584Z,100834.80
2017-10-10T10:19:35.100Z,100826.23
2017-10-10T10:22:02.651Z,100829.77
2017-10-10T10:24:30.151Z,100819.71
2017-10-10T10:26:57.733Z,100817.17
2017-10-10T10:29:25.292Z,100822.69
2017-10-10T10:31:52.795Z,100818.06
2017-10-10T10:34:20.285Z,100814.77
2017-10-10T10:36:47.825Z,100819.13
2017-10-10T10:39:15.320Z,100815.28
2017-10-10T10:41:42.872Z,100820.08
2017-10-10T10:44:10.555Z,100812.53
2017-10-10T10:46:38.094Z,100818.08
2017-10-10T10:49:05.663Z,100807.74
2017-10-10T10:51:33.213Z,100815.12
2017-10-10T10:54:00.875Z,100810.17
2017-10-10T10:56:28.375Z,100811.04
2017-10-10T10:58:55.869Z,100806.02
2017-10-10T11:01:23.419Z,100795.30
2017-10-10T11:03:50.921Z,100793.66
2017-10-10T11:06:18.418Z,100799.77
2017-10-10T11:08:45.980Z,100798.42
2017-10-10T11:11:13.473Z,100801.66
2017-10-10T11:13:41.065Z,100798.12
2017-10-10T11:16:08.597Z,100798.09
2017-10-10T11:18:36.164Z,100801.28
2017-10-10T11:21:03.734Z,100800.42
2017-10-10T11:23:31.306Z,100809.09
2017-10-10T11:25:59.044Z,100807.14
2017-10-10T11:28:26.539Z,100801.83
2017-10-10T11:30:54.031Z,100803.91
2017-10-10T11:33:21.575Z,100801.20
2017-10-10T11:35:49.076Z,100801.28
2017-10-10T11:38:16.586Z,100800.34
2017-10-10T11:40:44.120Z,100793.13
2017-10-10T11:43:11.615Z,100797.13
2017-10-10T11:45:39.104Z,100792.53
2017-10-10T11:48:06.668Z,100797.53
2017-10-10T11:50:34.244Z,100797.22
2017-10-10T11:53:01.737Z,100795.27
2017-10-10T11:55:29.351Z,100797.91
2017-10-10T11:57:56.913Z,100795.52
2017-10-10T12:00:24.412Z,100801.39
2017-10-10T12:02:52.019Z,100793.18
2017-10-10T12:05:19.635Z,100796.06
2017-10-10T12:07:47.123Z,100794.20
2017-10-10T12:10:14.660Z,100797.91
2017-10-10T12:12:42.143Z,100796.77
2017-10-10T12:15:09.635Z,100796.59
2017-10-10T12:17:37.168Z,100796.05
2017-10-10T12:20:04.669Z,100795.77
2017-10-10T12:22:32.160Z,100798.91
2017-10-10T12:24:59.693Z,100799.14
2017-10-10T12:27:27.184Z,100797.78
2017-10-10T12:29:54.766Z,100794.00
2017-10-10T12:32:22.308Z,100796.37
2017-10-10T12:34:49.804Z,100804.31
2017-10-10T12:37:17.303Z,100796.19
2017-10-10T12:39:44.905Z,100801.26
2017-10-10T12:42:12.402Z,100789.86
2017-10-10T12:44:39.908Z,100791.98
2017-10-10T12:47:07.684Z,100797.13
2017-10-10T12:49:35.193Z,100789.49
2017-10-10T12:52:02.718Z,100786.16
2017-10-10T12:54:30.260Z,100789.87
2017-10-10T12:56:57.756Z,100788.96
2017-10-10T12:59:25.265Z,100790.19
2017-10-10T13:01:52.842Z,100790.98
2017-10-10T13:04:20.341Z,100792.35
2017-10-10T13:06:47.845Z,100787.14
2017-10-10T13:09:15.387Z,100784.09
2017-10-10T13:11:42.880Z,100778.25
2017-10-10T13:14:10.372Z,100774.50
2017-10-10T13:16:37.902Z,100773.34
2017-10-10T13:19:05.393Z,100769.27
2017-10-10T13:21:33.177Z,100771.12
2017-10-10T13:24:00.787Z,100767.61
2017-10-10T13:26:28.293Z,100769.48
2017-10-10T13:28:55.792Z,100771.08
2017-10-10T13:31:23.349Z,100769.00
2017-10-10T13:33:50.840Z,100773.80
2017-10-10T13:36:18.392Z,100773.30
2017-10-10T13:38:46.039Z,100775.41
2017-10-10T13:41:13.529Z,100778.36
2017-10-10T13:43:41.158Z,100780.03
2017-10-10T13:46:08.653Z,100775.17
2017-10-10T13:48:36.143Z,100778.75
2017-10-10T13:51:03.674Z,100784.74
2017-10-10T13:53:31.171Z,100780.62
2017-10-10T13:55:58.736Z,100783.34
2017-10-10T13:58:26.271Z,100787.97
2017-10-10T14:00:53.762Z,100783.98
2017-10-10T14:03:21.260Z,100783.88
2017-10-10T14:05:48.812Z,100777.66
2017-10-10T14:08:16.323Z,100778.89
2017-10-10T14:10:43.827Z,100785.87
2017-10-10T14:13:11.651Z,100783.33
2017-10-10T14:15:39.148Z,100788.58
2017-10-10T14:18:06.666Z,100788.20
2017-10-10T14:20:34.319Z,100786.61
2017-10-10T14:23:01.810Z,100788.20
2017-10-10T14:25:29.303Z,100794.33
2017-10-10T14:27:56.899Z,100794.53
2017-10-10T14:30:24.411Z,100796.39
2017-10-10T14:32:51.943Z,100794.59
2017-10-10T14:35:19.444Z,100787.74
2017-10-10T14:37:46.953Z,100792.91
2017-10-10T14:40:14.511Z,100792.33
2017-10-10T14:42:42.008Z,100789.89
2017-10-10T14:45:09.496Z,100789.27
2017-10-10T14:47:37.075Z,100792.91
2017-10-10T14:50:04.564Z,100788.34
2017-10-10T14:52:32.082Z,100786.84
2017-10-10T14:54:59.613Z,100788.69
2017-10-10T14:57:27.118Z,100782.47
2017-10-10T14:59:54.668Z,100785.23
2017-10-10T15:02:22.159Z,100785.85
2017-10-10T15:04:49.658Z,100783.71
2017-10-10T15:07:17.208Z,100788.25
2017-10-10T15:09:44.699Z,100790.00
2017-10-10T15:12:12.188Z,100789.70
2017-10-10T15:14:39.723Z,100791.31
2017-10-10T15:17:07.221Z,100787.50
2017-10-10T15:19:34.716Z,100789.03
2017-10-10T15:22:02.286Z,100791.49
2017-10-10T15:24:29.847Z,100791.02
2017-10-10T15:26:57.341Z,100791.42
2017-10-10T15:29:24.963Z,100793.98
2017-10-10T15:31:52.451Z,100794.72
2017-10-10T15:34:19.979Z,100799.48
2017-10-10T15:36:47.542Z,100798.73
2017-10-10T15:39:15.032Z,100800.47
2017-10-10T15:41:42.577Z,100793.20
2017-10-10T15:44:10.068Z,100795.39
2017-10-10T15:46:37.566Z,100800.70
2017-10-10T15:49:05.111Z,100795.22
2017-10-10T15:51:33.435Z,100796.84
2017-10-10T15:54:00.929Z,100798.61
2017-10-10T15:56:28.527Z,100795.08
2017-10-10T15:58:56.032Z,100797.39
2017-10-10T16:01:23.852Z,100798.03
2017-10-10T16:03:51.351Z,100800.58
2017-10-10T16:06:18.853Z,100800.00
2017-10-10T16:08:46.417Z,100797.78
2017-10-10T16:11:13.902Z,100804.78
2017-10-10T16:13:41.432Z,100802.33
2017-10-10T16:16:08.975Z,100810.73
2017-10-10T16:18:36.533Z,100815.64
2017-10-10T16:21:04.029Z,100813.45
2017-10-10T16:23:31.536Z,100813.00
2017-10-10T16:25:59.151Z,100813.73
2017-10-10T16:28:26.647Z,100821.63
2017-10-10T16:30:54.157Z,100818.23
2017-10-10T16:33:21.917Z,100818.09
2017-10-10T16:35:49.411Z,100816.50
2017-10-10T16:38:16.897Z,100825.34
2017-10-10T16:40:44.501Z,100815.01
2017-10-10T16:43:12.067Z,100818.86
2017-10-10T16:45:39.615Z,100818.69
2017-10-10T16:48:07.187Z,100818.41
2017-10-10T16:50:34.674Z,100822.19
2017-10-10T16:53:02.389Z,100817.18
2017-10-10T16:55:29.884Z,100813.23
2017-10-10T16:57:57.497Z,100827.81
2017-10-10T17:00:25.281Z,100826.13
2017-10-10T17:02:52.831Z,100828.99
2017-10-10T17:05:20.324Z,100826.81
2017-10-10T17:07:50.388Z,100838.30
2017-10-10T17:10:17.920Z,100846.08
2017-10-10T17:12:45.416Z,100845.34
2017-10-10T17:15:13.011Z,100847.84
2017-10-10T17:17:40.769Z,100848.20
2017-10-10T17:20:08.317Z,100847.31
2017-10-10T17:22:35.813Z,100845.48
2017-10-10T17:25:03.369Z,100849.42
2017-10-10T17:27:30.889Z,100850.78
2017-10-10T17:29:58.383Z,100846.57
2017-10-10T17:32:25.920Z,100851.94
2017-10-10T17:34:53.410Z,100854.42
2017-10-10T17:37:20.912Z,100850.20
2017-10-10T17:39:48.476Z,100852.47
2017-10-10T17:42:15.991Z,100849.07
2017-10-10T17:44:43.599Z,100848.43
2017-10-10T17:47:11.155Z,100851.56
2017-10-10T17:49:38.644Z,100846.53
2017-10-10T17:52:06.139Z,100855.38
2017-10-10T17:54:40.857Z,100853.38
2017-10-10T17:57:08.385Z,100857.46
2017-10-10T17:59:35.884Z,100861.00
2017-10-10T18:02:03.387Z,100859.91
2017-10-10T18:04:30.924Z,100860.31
2017-10-10T18:06:58.473Z,100859.13
2017-10-10T18:09:25.971Z,100862.06
2017-10-10T18:11:53.470Z,100863.09
2017-10-10T18:14:21.037Z,100858.03
2017-10-10T18:16:48.601Z,100855.72
2017-10-10T18:19:16.183Z,100855.62
2017-10-10T18:21:43.711Z,100855.86
2017-10-10T18:24:11.204Z,100852.14
2017-10-10T18:26:38.760Z,100851.45
2017-10-10T18:29:06.282Z,100852.22
2017-10-10T18:31:33.787Z,100844.91
2017-10-10T18:34:01.315Z,100848.13
2017-10-10T18:36:28.919Z,100842.72
2017-10-10T18:38:56.416Z,100846.94
2017-10-10T18:41:24.051Z,100846.75
2017-10-10T18:43:51.576Z,100850.98
2017-10-10T18:46:19.075Z,100857.79
2017-10-10T18:48:46.609Z,100846.31
2017-10-10T18:51:14.149Z,100854.57
2017-10-10T18:53:41.692Z,100850.31
2017-10-10T18:56:09.185Z,100843.09
2017-10-10T18:58:36.929Z,100839.78
2017-10-10T19:01:04.491Z,100844.00
2017-10-10T19:03:31.993Z,100839.33
2017-10-10T19:05:59.727Z,100845.45
2017-10-10T19:08:27.225Z,100848.05
2017-10-10T19:10:54.837Z,100843.69
2017-10-10T19:13:22.408Z,100854.94
2017-10-10T19:15:49.902Z,100853.98
2017-10-10T19:18:17.451Z,100842.50
2017-10-10T19:20:44.997Z,100843.00
2017-10-10T19:23:12.489Z,100846.09
2017-10-10T19:25:40.000Z,100843.50
2017-10-10T19:28:07.645Z,100848.00
2017-10-10T19:30:35.139Z,100842.69
2017-10-10T19:33:02.658Z,100842.01
2017-10-10T19:35:30.183Z,100828.80
2017-10-10T19:37:57.716Z,100839.16
2017-10-10T19:40:25.205Z,100844.36
2017-10-10T19:42:52.700Z,100839.69
2017-10-10T19:45:20.232Z,100833.64
2017-10-10T19:47:47.754Z,100825.02
2017-10-10T19:50:15.274Z,100823.53
2017-10-10T19:52:42.824Z,100821.34
2017-10-10T19:55:10.351Z,100826.43
2017-10-10T19:57:37.847Z,100836.64
2017-10-10T20:00:05.352Z,100832.02
2017-10-10T20:02:32.978Z,100827.56
2017-10-10T20:05:00.468Z,100824.97
2017-10-10T20:07:27.961Z,100824.56
2017-10-10T20:09:55.507Z,100832.28
2017-10-10T20:12:23.000Z,100820.13
2017-10-10T20:14:50.548Z,100823.70
2017-10-10T20:17:18.104Z,100824.52
2017-10-10T20:19:45.592Z,100826.20
2017-10-10T20:22:13.079Z,100835.38
2017-10-10T20:24:40.608Z,100833.17
2017-10-10T20:27:08.107Z,100834.40
2017-10-10T20:29:35.620Z,100831.72
2017-10-10T20:32:03.168Z,100828.21
2017-10-10T20:34:31.539Z,100828.08
2017-10-10T20:36:59.033Z,100831.97
2017-10-10T20:39:26.598Z,100832.47
2017-10-10T20:41:54.091Z,100839.80
2017-10-10T20:44:21.586Z,100844.83
2017-10-10T20:46:49.128Z,100836.39
2017-10-10T20:49:16.687Z,100843.61
2017-10-10T20:51:44.185Z,100849.47
2017-10-10T20:54:11.807Z,100848.20
2017-10-10T20:56:39.300Z,100855.28
2017-10-10T20:59:06.801Z,100854.33
2017-10-10T21:01:34.326Z,100851.33
2017-10-10T21:04:01.827Z,100856.81
2017-10-10T21:06:29.447Z,100848.64
2017-10-10T21:08:56.948Z,100855.28
2017-10-10T21:11:24.520Z,100848.64
2017-10-10T21:13:52.039Z,100846.16
2017-10-10T21:16:19.536Z,100850.00
2017-10-10T21:18:47.095Z,100856.51
2017-10-10T21:21:14.595Z,100856.00
2017-10-10T21:23:42.121Z,100858.59
2017-10-10T21:26:09.617Z,100857.81
2017-10-10T21:28:37.121Z,100868.34
2017-10-10T21:31:04.680Z,100869.53
2017-10-10T21:33:32.163Z,100863.13
2017-10-10T21:35:59.704Z,100869.16
2017-10-10T21:38:27.363Z,100868.80
2017-10-10T21:40:54.941Z,100876.79
2017-10-10T21:43:22.483Z,100871.65
2017-10-10T21:45:50.021Z,100863.75
2017-10-10T21:48:17.515Z,100868.25
2017-10-10T21:50:45.075Z,100867.56
2017-10-10T21:53:12.851Z,100871.52
2017-10-10T21:55:40.385Z,100866.06
2017-10-10T21:58:07.919Z,100865.11
2017-10-10T22:00:35.417Z,100861.20
2017-10-10T22:03:03.157Z,100865.97
2017-10-10T22:05:30.661Z,100864.52
2017-10-10T22:07:58.199Z,100866.33
2017-10-10T22:10:25.758Z,100872.19
2017-10-10T22:12:53.291Z,100873.31
2017-10-10T22:15:20.847Z,100866.54
2017-10-10T22:17:48.380Z,100869.95
2017-10-10T22:20:15.867Z,100866.58
2017-10-10T22:22:43.360Z,100869.54
2017-10-10T22:25:10.894Z,100866.81
2017-10-10T22:27:38.393Z,100865.05
2017-10-10T22:30:06.002Z,100864.27
2017-10-10T22:32:33.584Z,100864.27
2017-10-10T22:35:01.087Z,100870.25
2017-10-10T22:37:28.651Z,100870.90
2017-10-10T22:39:56.159Z,100867.63
2017-10-10T22:42:23.695Z,100863.95
2017-10-10T22:44:51.370Z,100865.77
2017-10-10T22:47:18.866Z,100871.66
2017-10-10T22:49:46.368Z,100871.76
2017-10-10T22:52:13.904Z,100868.76
2017-10-10T22:54:41.493Z,100871.66
2017-10-10T22:57:09.012Z,100871.66
2017-10-10T22:59:36.572Z,100872.07
2017-10-10T23:02:04.069Z,100872.48
2017-10-10T23:04:31.567Z,100883.07
2017-10-10T23:06:59.267Z,100876.94
2017-10-10T23:09:26.862Z,100886.61
2017-10-10T23:11:54.357Z,100879.35
2017-10-10T23:14:21.898Z,100882.62
2017-10-10T23:16:49.468Z,100879.35
2017-10-10T23:19:16.970Z,100878.70
2017-10-10T23:21:44.499Z,100882.66
2017-10-10T23:24:12.028Z,100876.39
2017-10-10T23:26:39.525Z,100878.43
2017-10-10T23:29:07.045Z,100877.89
2017-10-10T23:31:34.547Z,100885.11
2017-10-10T23:34:02.104Z,100880.61
2017-10-10T23:36:29.699Z,100887.80
2017-10-10T23:38:57.268Z,100877.00
2017-10-10T23:41:25.022Z,100885.72
2017-10-10T23:43:52.579Z,100880.67
2017-10-10T23:46:20.096Z,100885.34
2017-10-10T23:48:47.662Z,100883.58
2017-10-10T23:51:15.190Z,100880.16
2017-10-10T23:53:42.738Z,100879.86
2017-10-10T23:56:10.275Z,100876.55
2017-10-10T23:58:37.768Z,100877.05
